Time;durP1;ratioP1;P1;durP2;ratioP2;P2;SDS_P1;SDS_P2;PMS_P1;PMS_P2;Temp;Humidity;BMP_temperature;BMP_pressure;BME280_temperature;BME280_humidity;BME280_pressure;Samples;Min_cycle;Max_cycle;Signal;HPM_P1;HPM_P2
2022/04/08 00:01:50;;;;;;;6.75;1.70;;;;;;;5.14;82.67;99697.50;5032588;28;20033;-87
2022/04/08 00:04:16;;;;;;;8.77;1.80;;;;;;;5.15;83.11;99700.97;5032881;28;20080;-88
2022/04/08 00:06:41;;;;;;;4.25;1.60;;;;;;;5.12;83.03;99709.56;5032845;28;20040;-88
2022/04/08 00:09:06;;;;;;;6.22;1.90;;;;;;;5.12;82.70;99707.00;5032396;28;20037;-88
2022/04/08 00:11:31;;;;;;;7.70;1.80;;;;;;;5.13;82.42;99715.56;5032979;28;20030;-87
2022/04/08 00:13:57;;;;;;;9.40;1.77;;;;;;;5.09;82.37;99707.84;5032647;28;20027;-88
2022/04/08 00:16:25;;;;;;;9.35;2.05;;;;;;;5.09;82.38;99722.44;5032354;28;20033;-88
2022/04/08 00:18:50;;;;;;;12.32;2.53;;;;;;;5.06;82.05;99725.91;5033005;28;20124;-88
2022/04/08 00:21:16;;;;;;;9.98;2.08;;;;;;;5.06;81.97;99727.63;5033108;28;20528;-88
2022/04/08 00:23:42;;;;;;;6.75;1.85;;;;;;;5.05;81.48;99731.94;5032300;28;20493;-87
2022/04/08 00:26:07;;;;;;;7.32;2.10;;;;;;;5.05;81.11;99733.63;5033255;28;20095;-88
2022/04/08 00:28:32;;;;;;;7.50;2.13;;;;;;;5.02;80.96;99731.09;5036885;28;20030;-86
2022/04/08 00:30:58;;;;;;;6.07;1.63;;;;;;;5.05;80.68;99751.63;5036182;28;20096;-88
2022/04/08 00:33:23;;;;;;;6.22;1.95;;;;;;;5.03;80.46;99750.78;5036725;28;20028;-87
2022/04/08 00:35:48;;;;;;;7.50;1.75;;;;;;;5.04;80.39;99742.22;5036683;28;20363;-86
2022/04/08 00:38:14;;;;;;;8.68;2.03;;;;;;;5.04;80.36;99749.94;5035431;28;20029;-86
2022/04/08 00:40:39;;;;;;;9.23;1.83;;;;;;;5.03;80.20;99758.50;5036307;28;20436;-87
2022/04/08 00:43:12;;;;;;;6.97;1.83;;;;;;;5.03;80.55;99756.81;5036050;28;20477;-88
2022/04/08 00:45:37;;;;;;;7.47;1.67;;;;;;;5.03;80.70;99764.50;5036489;28;20175;-87
2022/04/08 00:48:07;;;;;;;6.88;2.10;;;;;;;5.02;80.61;99757.66;5036553;28;20470;-88
2022/04/08 00:50:34;;;;;;;5.78;1.67;;;;;;;5.04;80.38;99768.78;5035496;28;20040;-87
2022/04/08 00:53:01;;;;;;;;;;;;;;;5.03;80.16;99768.78;5036806;28;20389;-87
2022/04/08 00:55:26;;;;;;;8.30;1.83;;;;;;;5.02;80.50;99772.22;5035979;28;20285;-87
2022/04/08 00:57:53;;;;;;;5.55;1.70;;;;;;;4.99;80.22;99777.41;5035629;28;20022;-88
2022/04/08 01:00:22;;;;;;;6.55;1.70;;;;;;;5.00;80.43;99779.97;5035382;28;20464;-86
2022/04/08 01:02:47;;;;;;;10.43;2.10;;;;;;;4.96;80.09;99788.56;5036044;28;20434;-88
2022/04/08 01:05:12;;;;;;;10.13;1.95;;;;;;;4.98;80.47;99789.41;5035404;28;20104;-87
2022/04/08 01:07:38;;;;;;;6.57;1.80;;;;;;;4.96;80.54;99793.72;5035368;28;20064;-87
2022/04/08 01:10:04;;;;;;;6.10;1.67;;;;;;;4.97;80.43;99805.69;5036357;28;20078;-87
2022/04/08 01:12:29;;;;;;;8.25;1.85;;;;;;;4.95;80.36;99800.59;5035424;28;20121;-86
2022/04/08 01:14:58;;;;;;;5.78;1.95;;;;;;;4.96;80.23;99814.28;5035410;28;20493;-87
2022/04/08 01:17:24;;;;;;;7.28;1.80;;;;;;;4.93;80.33;99811.75;5035319;28;20033;-85
2022/04/08 01:19:49;;;;;;;6.85;1.85;;;;;;;4.93;80.26;99812.59;5035090;28;20028;-88
2022/04/08 01:22:17;;;;;;;4.07;1.92;;;;;;;4.95;80.38;99816.00;5035905;28;20068;-87
2022/04/08 01:24:47;;;;;;;4.00;1.42;;;;;;;4.94;80.28;99816.03;5035814;28;20109;-87
2022/04/08 01:27:16;;;;;;;9.02;1.80;;;;;;;4.93;80.21;99819.47;5035152;28;20026;-87
2022/04/08 01:29:41;;;;;;;4.47;1.45;;;;;;;4.91;80.42;99822.03;5035696;28;20076;-87
2022/04/08 01:32:07;;;;;;;3.28;1.25;;;;;;;4.86;80.44;99815.22;5035914;28;20032;-87
2022/04/08 01:34:32;;;;;;;3.83;1.30;;;;;;;4.85;80.29;99823.81;5034689;28;20033;-87
2022/04/08 01:36:58;;;;;;;5.90;1.45;;;;;;;4.85;80.72;99829.81;5035055;28;20025;-88
2022/04/08 01:39:23;;;;;;;6.78;1.80;;;;;;;4.83;80.82;99834.09;5035031;28;20042;-89
2022/04/08 01:41:48;;;;;;;6.75;1.42;;;;;;;4.85;80.29;99836.66;5035503;28;20029;-88
2022/04/08 01:44:14;;;;;;;7.30;1.95;;;;;;;4.82;80.98;99829.00;5035159;28;20459;-88
2022/04/08 01:46:39;;;;;;;7.35;1.67;;;;;;;4.76;80.08;99823.03;5035182;28;20056;-88
2022/04/08 01:49:04;;;;;;;7.10;1.50;;;;;;;4.81;79.88;99829.84;5035413;28;20482;-86
2022/04/08 01:51:29;;;;;;;6.28;1.50;;;;;;;4.67;79.31;99827.41;5035141;28;20029;-87
2022/04/08 01:53:55;;;;;;;4.70;1.55;;;;;;;4.62;79.48;99845.38;5034696;28;20033;-88
2022/04/08 01:56:21;;;;;;;2.83;1.10;;;;;;;4.60;79.92;99847.16;5035012;28;20021;-89
2022/04/08 01:58:46;;;;;;;5.38;1.25;;;;;;;4.58;79.61;99839.44;5034838;28;20045;-88
2022/04/08 02:01:11;;;;;;;1.55;0.85;;;;;;;4.55;79.40;99841.16;5034110;28;20124;-87
2022/04/08 02:03:39;;;;;;;5.22;1.30;;;;;;;4.50;79.73;99845.50;5035135;28;20029;-87
2022/04/08 02:06:05;;;;;;;4.38;1.50;;;;;;;4.45;79.51;99848.94;5034746;28;20116;-87
2022/04/08 02:08:30;;;;;;;3.85;1.73;;;;;;;4.43;79.81;99845.53;5034291;28;20104;-87
2022/04/08 02:10:55;;;;;;;3.42;1.40;;;;;;;4.39;79.80;99846.38;5033733;28;20564;-87
2022/04/08 02:13:20;;;;;;;4.13;1.48;;;;;;;4.42;79.93;99853.25;5034460;28;20037;-87
2022/04/08 02:15:46;;;;;;;3.47;1.30;;;;;;;4.43;79.69;99858.38;5034343;28;20032;-87
2022/04/08 02:18:12;;;;;;;1.50;1.00;;;;;;;4.44;80.00;99866.94;5034682;28;20049;-87
2022/04/08 02:20:38;;;;;;;3.72;1.10;;;;;;;4.44;79.81;99867.78;5034384;28;20040;-88
2022/04/08 02:23:04;;;;;;;2.63;0.90;;;;;;;4.47;79.94;99874.63;5034125;28;20400;-87
2022/04/08 02:25:30;;;;;;;1.77;1.00;;;;;;;4.46;80.60;99876.34;5034462;28;20063;-88
2022/04/08 02:27:55;;;;;;;5.05;1.40;;;;;;;4.46;80.66;99872.91;5035146;28;20420;-88
2022/04/08 02:30:21;;;;;;;4.93;1.38;;;;;;;4.44;80.63;99872.94;5034416;28;20523;-89
2022/04/08 02:32:46;;;;;;;2.15;1.20;;;;;;;4.42;81.00;99874.63;5034963;28;20427;-88
2022/04/08 02:35:12;;;;;;;2.17;1.15;;;;;;;4.41;81.17;99872.94;5035079;28;20532;-90
2022/04/08 02:37:37;;;;;;;1.73;1.00;;;;;;;4.39;81.47;99872.09;5034461;28;20029;-88
2022/04/08 02:40:03;;;;;;;1.92;1.00;;;;;;;4.38;81.18;99879.81;5034111;28;20030;-89
2022/04/08 02:42:31;;;;;;;1.92;0.80;;;;;;;4.35;80.69;99864.41;5033989;28;20029;-87
2022/04/08 02:44:57;;;;;;;1.00;0.70;;;;;;;4.32;80.83;99867.84;5034598;28;20104;-88
2022/04/08 02:47:25;;;;;;;1.03;0.70;;;;;;;4.31;81.02;99878.97;5034230;28;20423;-88
2022/04/08 02:49:50;;;;;;;1.33;0.52;;;;;;;4.28;80.69;99873.84;5033438;28;20033;-88
2022/04/08 02:52:18;;;;;;;0.80;0.80;;;;;;;4.23;80.79;99878.19;5034707;28;20035;-89
2022/04/08 02:54:44;;;;;;;0.50;0.50;;;;;;;4.18;80.94;99876.47;5034790;28;20038;-88
2022/04/08 02:57:09;;;;;;;2.13;0.80;;;;;;;4.12;80.62;99885.91;5034311;28;20044;-88
2022/04/08 02:59:34;;;;;;;2.05;0.85;;;;;;;4.11;80.64;99884.25;5033543;28;20078;-88
2022/04/08 03:02:00;;;;;;;1.85;0.50;;;;;;;4.09;80.54;99880.81;5034206;28;20386;-88
2022/04/08 03:04:25;;;;;;;0.80;0.70;;;;;;;4.05;80.42;99879.97;5033778;28;20485;-88
2022/04/08 03:06:51;;;;;;;1.92;0.70;;;;;;;4.04;80.81;99878.28;5034341;28;20024;-88
2022/04/08 03:09:17;;;;;;;0.57;0.40;;;;;;;4.02;80.85;99885.13;5034218;28;20437;-88
2022/04/08 03:11:45;;;;;;;1.05;0.60;;;;;;;4.00;80.97;99881.69;5033812;28;20276;-90
2022/04/08 03:14:10;;;;;;;2.05;0.77;;;;;;;3.95;81.01;99880.84;5033530;28;20036;-87
2022/04/08 03:16:35;;;;;;;3.05;0.98;;;;;;;3.93;81.43;99895.44;5033824;28;20037;-89
2022/04/08 03:19:22;;;;;;;3.05;1.15;;;;;;;3.89;81.21;99894.56;5033801;28;20036;-88
2022/04/08 03:21:52;;;;;;;1.23;0.82;;;;;;;3.81;81.09;99876.63;5032942;28;20042;-88
2022/04/08 03:24:17;;;;;;;2.70;0.93;;;;;;;3.81;81.74;99888.59;5033709;28;20084;-88
2022/04/08 03:26:44;;;;;;;1.75;0.90;;;;;;;3.79;81.73;99892.88;5033133;28;20465;-88
2022/04/08 03:29:19;;;;;;;2.08;0.93;;;;;;;3.75;82.06;99894.59;5033982;28;20105;-88
2022/04/08 03:31:45;;;;;;;2.42;0.90;;;;;;;3.73;82.49;99898.88;5033661;28;20030;-88
2022/04/08 03:34:10;;;;;;;1.00;0.90;;;;;;;3.69;82.38;99903.16;5033694;28;20033;-89
2022/04/08 03:36:38;;;;;;;2.35;0.75;;;;;;;3.65;82.32;99905.75;5033439;28;20382;-89
2022/04/08 03:39:03;;;;;;;2.28;0.82;;;;;;;3.63;82.30;99913.47;5033424;28;20108;-88
2022/04/08 03:41:29;;;;;;;1.40;0.77;;;;;;;3.59;82.07;99906.63;5033404;28;20444;-88
2022/04/08 03:43:57;;;;;;;1.80;1.00;;;;;;;3.58;82.29;99912.59;5033923;28;20025;-88
2022/04/08 03:46:22;;;;;;;1.10;0.68;;;;;;;3.55;81.96;99913.47;5033111;28;20029;-87
2022/04/08 03:48:50;;;;;;;3.13;1.23;;;;;;;3.59;81.77;99913.47;5033384;28;20033;-87
2022/04/08 03:51:15;;;;;;;4.32;1.38;;;;;;;3.54;82.19;99916.03;5033112;28;20033;-88
2022/04/08 03:53:41;;;;;;;2.30;1.10;;;;;;;3.52;81.51;99921.16;5033138;28;20528;-88
2022/04/08 03:56:06;;;;;;;1.15;0.80;;;;;;;3.49;81.89;99918.59;5033613;28;20104;-88
2022/04/08 03:58:32;;;;;;;1.30;0.90;;;;;;;3.49;82.22;99922.88;5032939;28;20466;-88
2022/04/08 04:00:57;;;;;;;0.75;0.60;;;;;;;3.45;81.82;99916.91;5033068;28;20037;-89
2022/04/08 04:03:22;;;;;;;1.70;0.82;;;;;;;3.46;82.21;99920.31;5032993;28;20374;-87
2022/04/08 04:05:48;;;;;;;1.30;0.80;;;;;;;3.41;82.56;99917.75;5033392;28;20065;-89
2022/04/08 04:08:18;;;;;;;1.80;0.90;;;;;;;3.39;82.23;99920.31;5032927;28;20484;-88
2022/04/08 04:10:49;;;;;;;1.58;1.00;;;;;;;3.36;82.25;99917.75;5033127;28;20068;-88
2022/04/08 04:13:15;;;;;;;1.02;0.55;;;;;;;3.35;82.14;99913.47;5033250;28;20084;-88
2022/04/08 04:15:40;;;;;;;1.52;1.00;;;;;;;3.32;82.23;99916.03;5032712;28;20049;-88
2022/04/08 04:18:06;;;;;;;0.68;0.52;;;;;;;3.30;81.97;99915.22;5032894;28;20382;-88
2022/04/08 04:20:33;;;;;;;1.20;0.68;;;;;;;3.28;82.18;99916.03;5033017;28;20030;-88
2022/04/08 04:22:58;;;;;;;0.90;0.82;;;;;;;3.24;82.08;99912.63;5033296;28;20108;-89
2022/04/08 04:25:23;;;;;;;2.17;0.70;;;;;;;3.24;81.74;99913.50;5032692;28;20072;-88
2022/04/08 04:27:48;;;;;;;0.93;0.80;;;;;;;3.21;82.27;99910.06;5013497;28;20026;-88
2022/04/08 04:30:14;;;;;;;2.15;0.95;;;;;;;3.20;82.19;99913.50;5013037;28;20030;-88
2022/04/08 04:32:39;;;;;;;1.52;0.93;;;;;;;3.17;82.20;99913.50;5013053;28;20021;-88
2022/04/08 04:35:07;;;;;;;1.15;1.08;;;;;;;3.12;82.23;99907.50;5024740;28;20037;-86
2022/04/08 04:37:34;;;;;;;1.23;1.10;;;;;;;3.08;82.48;99915.22;5032832;28;20026;-88
2022/04/08 04:40:01;;;;;;;1.40;1.13;;;;;;;3.08;82.33;99917.78;5013368;28;20066;-88
2022/04/08 04:42:27;;;;;;;1.25;0.90;;;;;;;3.07;82.65;99918.63;5012803;28;20018;-88
2022/04/08 04:44:53;;;;;;;2.05;1.05;;;;;;;3.06;82.47;99923.72;5023377;28;20026;-87
2022/04/08 04:47:18;;;;;;;1.10;1.00;;;;;;;3.02;83.40;99916.91;5032643;28;20033;-88
2022/04/08 04:49:46;;;;;;;1.25;0.90;;;;;;;2.99;82.31;99920.31;5032711;28;20042;-88
2022/04/08 04:52:11;;;;;;;1.30;1.20;;;;;;;2.94;83.52;99916.91;5033109;28;20052;-89
2022/04/08 04:54:36;;;;;;;1.17;1.08;;;;;;;2.92;82.90;99918.59;5032542;28;20807;-89
2022/04/08 04:57:01;;;;;;;2.30;1.50;;;;;;;2.85;84.05;99910.03;5033131;28;20156;-89
2022/04/08 04:59:27;;;;;;;1.55;1.40;;;;;;;2.84;83.63;99920.31;5032492;28;20413;-89
2022/04/08 05:01:54;;;;;;;3.95;1.80;;;;;;;2.84;84.79;99921.16;5032743;28;20037;-87
2022/04/08 05:04:19;;;;;;;3.58;1.98;;;;;;;2.83;84.48;99919.44;5032717;28;20107;-89
2022/04/08 05:06:44;;;;;;;2.45;1.90;;;;;;;2.81;84.93;99910.91;5032803;28;20026;-88
2022/04/08 05:09:10;;;;;;;4.95;1.98;;;;;;;2.79;84.13;99915.19;5033172;28;20033;-89
2022/04/08 05:11:35;;;;;;;2.00;1.73;;;;;;;2.79;83.78;99912.63;5031722;28;20117;-89
2022/04/08 05:14:00;;;;;;;2.88;1.80;;;;;;;2.81;83.13;99917.72;5036334;28;20474;-88
2022/04/08 05:16:26;;;;;;;2.92;1.90;;;;;;;2.80;83.80;99922.00;5036464;28;20044;-89
2022/04/08 05:18:51;;;;;;;2.92;1.70;;;;;;;2.82;83.84;99917.72;5035926;28;20095;-88
2022/04/08 05:21:16;;;;;;;1.92;1.70;;;;;;;2.84;83.37;99915.19;5037161;28;20089;-89
2022/04/08 05:23:42;;;;;;;1.63;1.52;;;;;;;2.86;83.26;99911.75;5051233;28;20025;-87
2022/04/08 05:26:07;;;;;;;2.78;1.70;;;;;;;2.87;83.46;99915.19;5048151;28;20081;-89
2022/04/08 05:28:32;;;;;;;2.55;1.52;;;;;;;2.87;83.78;99910.91;5049532;28;20163;-88
2022/04/08 05:30:57;;;;;;;1.67;1.58;;;;;;;2.90;83.62;99912.63;5050734;28;20029;-88
2022/04/08 05:33:23;;;;;;;1.98;1.80;;;;;;;2.89;83.42;99909.22;5049444;28;20089;-89
2022/04/08 05:35:48;;;;;;;3.35;2.10;;;;;;;2.89;84.70;99901.53;5040843;28;20029;-88
2022/04/08 05:38:14;;;;;;;2.35;1.92;;;;;;;2.97;84.57;99906.66;5036497;28;20048;-89
2022/04/08 05:40:41;;;;;;;1.80;1.70;;;;;;;2.99;84.47;99897.22;5035624;28;20382;-89
2022/04/08 05:43:06;;;;;;;;;;;;;;;3.05;83.76;99898.94;5036304;28;20120;-89
2022/04/08 05:45:32;;;;;;;1.70;1.60;;;;;;;3.11;83.47;99904.09;5035563;28;19924;-89
2022/04/08 05:48:03;;;;;;;2.83;1.88;;;;;;;3.12;84.99;99905.81;5036114;28;20164;-88
2022/04/08 05:50:28;;;;;;;4.18;2.40;;;;;;;3.12;85.26;99897.25;5035634;28;20061;-88
2022/04/08 05:52:53;;;;;;;2.42;2.13;;;;;;;3.16;84.38;99899.81;5035248;28;20079;-89
2022/04/08 05:55:19;;;;;;;2.80;2.13;;;;;;;3.23;83.79;99893.84;5035379;28;20021;-88
2022/04/08 05:57:45;;;;;;;3.47;2.33;;;;;;;3.28;83.38;99891.28;5035193;28;20021;-88
2022/04/08 06:00:13;;;;;;;2.20;2.00;;;;;;;3.30;83.55;99891.25;5034822;28;20049;-89
2022/04/08 06:02:39;;;;;;;4.45;2.50;;;;;;;3.35;84.37;99890.41;5035482;28;20462;-89
2022/04/08 06:05:05;;;;;;;2.70;2.30;;;;;;;3.41;83.35;99892.09;5035880;28;20454;-88
2022/04/08 06:07:31;;;;;;;2.40;2.20;;;;;;;3.44;83.57;99899.81;5034395;28;20061;-89
2022/04/08 06:09:59;;;;;;;3.45;2.30;;;;;;;3.49;84.69;99898.06;5035344;28;20486;-88
2022/04/08 06:12:24;;;;;;;2.58;2.10;;;;;;;3.51;83.99;99896.34;5035389;28;20060;-89
2022/04/08 06:14:50;;;;;;;4.38;2.40;;;;;;;3.53;83.00;99889.53;5034971;28;20493;-89
2022/04/08 06:17:15;;;;;;;4.13;2.50;;;;;;;3.55;84.16;99887.81;5035268;28;20024;-87
2022/04/08 06:19:46;;;;;;;3.72;2.35;;;;;;;3.61;84.20;99888.63;5034043;28;20048;-85
2022/04/08 06:22:12;;;;;;;2.75;2.42;;;;;;;3.64;84.14;99884.38;5034411;28;20434;-85
2022/04/08 06:24:37;;;;;;;4.60;2.70;;;;;;;3.67;84.29;99888.66;5033415;28;20063;-85
2022/04/08 06:27:05;;;;;;;4.10;2.80;;;;;;;3.71;85.26;99901.47;5033892;28;20354;-85
2022/04/08 06:29:30;;;;;;;3.63;2.65;;;;;;;3.71;84.27;99892.91;5029562;28;20021;-85
2022/04/08 06:31:56;;;;;;;3.38;2.58;;;;;;;3.77;84.18;99895.47;5034650;28;20075;-84
2022/04/08 06:34:21;;;;;;;3.05;2.33;;;;;;;3.83;84.21;99900.56;5033924;28;20474;-85
2022/04/08 06:36:46;;;;;;;3.53;2.63;;;;;;;3.89;84.80;99899.69;5033296;28;20026;-84
2022/04/08 06:39:11;;;;;;;4.32;2.85;;;;;;;3.94;84.88;99892.84;5034088;28;20381;-84
2022/04/08 06:41:37;;;;;;;2.90;2.58;;;;;;;4.05;85.46;99884.25;5033645;28;20040;-84
2022/04/08 06:44:02;;;;;;;8.15;3.80;;;;;;;4.13;84.74;99878.22;5033180;28;20022;-84
2022/04/08 06:46:28;;;;;;;7.63;4.20;;;;;;;4.20;85.03;99878.19;5033463;28;20029;-84
2022/04/08 06:48:54;;;;;;;6.78;3.85;;;;;;;4.28;85.05;99868.72;5033242;28;20033;-84
2022/04/08 06:51:19;;;;;;;5.90;3.60;;;;;;;4.40;85.17;99871.22;5033544;28;20414;-84
2022/04/08 06:53:51;;;;;;;5.25;3.22;;;;;;;4.52;84.97;99869.44;5033699;28;20017;-84
2022/04/08 06:56:16;;;;;;;6.72;3.70;;;;;;;4.63;84.77;99871.09;5032681;28;20424;-84
2022/04/08 06:58:41;;;;;;;7.35;3.80;;;;;;;4.72;82.73;99870.19;5033005;28;20079;-84
2022/04/08 07:01:07;;;;;;;6.47;3.63;;;;;;;4.76;83.72;99873.59;5033399;28;20037;-84
2022/04/08 07:03:33;;;;;;;4.75;3.40;;;;;;;4.82;83.82;99864.97;5032541;28;20496;-83
2022/04/08 07:05:58;;;;;;;5.90;3.30;;;;;;;4.84;83.99;99861.53;5033560;28;20076;-83
2022/04/08 07:08:23;;;;;;;6.47;4.00;;;;;;;4.93;84.50;99865.75;5033356;28;20023;-83
2022/04/08 07:10:49;;;;;;;7.10;3.92;;;;;;;4.97;84.13;99867.41;5032745;28;20031;-84
2022/04/08 07:13:14;;;;;;;7.00;3.85;;;;;;;5.05;83.58;99867.34;5033301;28;20029;-83
2022/04/08 07:15:39;;;;;;;4.88;3.25;;;;;;;5.09;83.55;99866.47;5033284;28;20527;-84
2022/04/08 07:18:05;;;;;;;6.45;3.90;;;;;;;5.14;83.06;99863.88;5032647;28;20034;-85
2022/04/08 07:20:30;;;;;;;6.35;3.63;;;;;;;5.18;82.21;99865.56;5033167;28;20040;-86
2022/04/08 07:23:01;;;;;;;7.00;3.65;;;;;;;5.22;81.98;99862.06;5033701;28;20441;-80
2022/04/08 07:25:27;;;;;;;5.55;3.55;;;;;;;5.26;82.56;99856.88;5031955;28;20068;-87
2022/04/08 07:27:52;;;;;;;3.92;2.85;;;;;;;5.32;82.64;99861.13;5030454;28;20052;-87
2022/04/08 07:30:21;;;;;;;4.60;3.10;;;;;;;5.36;82.07;99857.66;5033196;28;20104;-86
2022/04/08 07:32:48;;;;;;;6.53;3.30;;;;;;;5.41;81.73;99860.19;5031812;28;20026;-86
2022/04/08 07:35:13;;;;;;;6.93;3.42;;;;;;;5.41;80.96;99860.19;5032230;28;20036;-87
2022/04/08 07:37:39;;;;;;;4.93;3.40;;;;;;;5.40;81.14;99861.88;5032689;28;20026;-87
2022/04/08 07:40:09;;;;;;;5.10;3.45;;;;;;;5.44;80.70;99861.88;5031751;28;20013;-87
2022/04/08 07:42:35;;;;;;;6.90;3.55;;;;;;;5.49;81.34;99860.13;5033021;28;20060;-86
2022/04/08 07:45:00;;;;;;;4.30;2.88;;;;;;;5.55;81.49;99855.75;5032404;28;20040;-86
2022/04/08 07:47:29;;;;;;;4.70;2.90;;;;;;;5.65;80.67;99860.81;5032702;28;20104;-85
2022/04/08 07:50:04;;;;;;;5.88;3.10;;;;;;;5.69;80.77;99863.31;5032943;28;20120;-86
2022/04/08 07:52:29;;;;;;;5.53;3.20;;;;;;;5.74;80.40;99857.28;5031611;28;20490;-86
2022/04/08 07:54:55;;;;;;;4.85;2.97;;;;;;;5.75;80.38;99851.22;5032754;28;20053;-86
2022/04/08 07:57:21;;;;;;;6.60;3.40;;;;;;;5.78;79.85;99846.06;5032288;28;20022;-86
2022/04/08 07:59:46;;;;;;;6.15;3.40;;;;;;;5.77;79.94;99837.50;5031680;28;20052;-85
2022/04/08 08:02:12;;;;;;;4.97;2.88;;;;;;;5.83;80.47;99842.56;5032683;28;20470;-85
2022/04/08 08:04:37;;;;;;;8.18;3.40;;;;;;;5.91;79.24;99850.19;5032383;28;20030;-85
2022/04/08 08:07:03;;;;;;;5.75;3.03;;;;;;;5.96;79.94;99851.00;5031757;28;20334;-79
2022/04/08 08:09:29;;;;;;;5.05;2.97;;;;;;;5.97;78.75;99855.25;5032579;28;20057;-84
2022/04/08 08:11:54;;;;;;;4.18;2.90;;;;;;;5.98;79.27;99849.25;5033068;28;20021;-84
2022/04/08 08:14:19;;;;;;;5.68;3.00;;;;;;;6.07;79.24;99850.06;5032315;28;20465;-84
2022/04/08 08:16:47;;;;;;;3.85;2.50;;;;;;;6.09;79.85;99845.72;5032415;28;20029;-84
2022/04/08 08:19:13;;;;;;;2.70;2.33;;;;;;;6.14;79.58;99838.78;5032671;28;20409;-84
2022/04/08 08:21:39;;;;;;;6.57;2.73;;;;;;;6.24;78.78;99834.38;5031232;28;20022;-84
2022/04/08 08:24:10;;;;;;;3.58;2.30;;;;;;;6.28;79.17;99842.03;5032185;28;20468;-84
2022/04/08 08:26:36;;;;;;;2.92;2.17;;;;;;;6.36;79.09;99841.91;5032010;28;20033;-84
2022/04/08 08:29:01;;;;;;;5.35;3.03;;;;;;;6.38;77.95;99847.06;5032329;28;20021;-84
2022/04/08 08:31:27;;;;;;;4.55;2.75;;;;;;;6.40;77.51;99833.25;5032293;28;20482;-84
2022/04/08 08:33:52;;;;;;;2.95;2.40;;;;;;;6.46;78.39;99829.75;5032367;28;20112;-84
2022/04/08 08:36:17;;;;;;;6.28;2.60;;;;;;;6.55;77.46;99827.03;5031656;28;20033;-84
2022/04/08 08:38:43;;;;;;;3.75;2.30;;;;;;;6.60;77.24;99825.25;5032449;28;20060;-84
2022/04/08 08:41:09;;;;;;;2.57;2.27;;;;;;;6.64;77.08;99821.72;5032457;28;20085;-84
2022/04/08 08:43:36;;;;;;;5.40;2.35;;;;;;;6.71;75.99;99819.06;5031315;28;20068;-84
2022/04/08 08:46:03;;;;;;;2.53;2.20;;;;;;;6.75;76.08;99810.41;5032722;28;20026;-84
2022/04/08 08:48:33;;;;;;;2.42;2.22;;;;;;;6.83;76.68;99812.84;5033984;28;20026;-81
2022/04/08 08:51:03;;;;;;;3.08;2.20;;;;;;;6.90;76.69;99804.16;5035947;28;20037;-82
2022/04/08 08:53:30;;;;;;;3.08;2.33;;;;;;;6.97;74.17;99805.75;5036058;28;20025;-83
2022/04/08 08:55:56;;;;;;;2.30;2.10;;;;;;;7.04;75.56;99796.16;5035177;28;20465;-81
2022/04/08 08:58:21;;;;;;;4.10;2.10;;;;;;;7.07;73.59;99796.13;5035717;28;20034;-82
2022/04/08 09:00:47;;;;;;;2.73;2.00;;;;;;;7.16;76.13;99790.78;5035209;28;20045;-81
2022/04/08 09:03:13;;;;;;;2.10;1.83;;;;;;;7.26;75.93;99784.59;5034180;28;20033;-81
2022/04/08 09:05:50;;;;;;;2.42;2.05;;;;;;;7.38;74.28;99787.81;5035396;28;20405;-80
2022/04/08 09:08:19;;;;;;;3.15;2.28;;;;;;;7.40;72.98;99788.63;5036064;28;20076;-80
2022/04/08 09:10:48;;;;;;;3.22;2.40;;;;;;;7.44;73.49;99785.09;5035010;28;20108;-80
2022/04/08 09:13:21;;;;;;;2.75;2.22;;;;;;;7.48;73.74;99776.41;5035294;28;20108;-81
2022/04/08 09:15:55;;;;;;;2.17;1.98;;;;;;;7.52;74.34;99779.78;5035629;28;20026;-80
2022/04/08 09:18:20;;;;;;;2.25;1.80;;;;;;;7.54;73.88;99776.28;5034272;28;20033;-81
2022/04/08 09:20:49;;;;;;;1.83;1.70;;;;;;;7.65;74.16;99781.25;5035545;28;20028;-81
2022/04/08 09:23:17;;;;;;;1.85;1.75;;;;;;;7.70;74.11;99783.72;5035591;28;20025;-81
2022/04/08 09:25:43;;;;;;;1.70;1.60;;;;;;;7.76;73.55;99783.63;5034529;28;20056;-82
2022/04/08 09:28:11;;;;;;;3.40;2.00;;;;;;;7.81;71.26;99774.03;5034403;28;20075;-81
2022/04/08 09:30:36;;;;;;;2.75;2.03;;;;;;;7.84;72.58;99776.56;5034306;28;20029;-81
2022/04/08 09:33:19;;;;;;;3.53;1.90;;;;;;;7.87;72.51;99778.22;5034089;28;20549;-81
2022/04/08 09:35:45;;;;;;;1.80;1.63;;;;;;;7.89;72.98;99774.72;5035140;28;20030;-81
2022/04/08 09:38:10;;;;;;;2.00;1.80;;;;;;;7.95;71.33;99776.31;5030447;28;20043;-81
2022/04/08 09:40:42;;;;;;;1.70;1.60;;;;;;;8.00;71.77;99778.78;5033955;28;20050;-81
2022/04/08 09:43:08;;;;;;;1.70;1.52;;;;;;;8.02;72.74;99779.63;5035037;28;20035;-83
2022/04/08 09:45:34;;;;;;;4.37;2.20;;;;;;;8.00;68.06;99769.31;5033724;28;20029;-83
2022/04/08 09:48:03;;;;;;;3.83;2.00;;;;;;;7.98;69.03;99775.41;5035200;28;20014;-83
2022/04/08 09:50:29;;;;;;;2.67;1.90;;;;;;;7.96;70.81;99767.69;5034877;28;20096;-83
2022/04/08 09:52:55;;;;;;;2.63;2.00;;;;;;;7.97;69.63;99773.72;5034324;28;20507;-85
2022/04/08 09:55:22;;;;;;;3.05;2.08;;;;;;;8.00;70.32;99774.50;5033990;28;20035;-84
2022/04/08 09:58:00;;;;;;;2.28;1.80;;;;;;;7.98;66.68;99767.66;5034465;28;20037;-84
2022/04/08 10:00:27;;;;;;;4.70;2.00;;;;;;;7.97;69.68;99771.97;5033563;28;20034;-84
2022/04/08 10:03:02;;;;;;;5.10;2.28;;;;;;;7.94;68.78;99763.44;5034877;28;20042;-84
2022/04/08 10:05:46;;;;;;;4.13;2.20;;;;;;;7.94;68.39;99766.03;5034342;28;20025;-84
2022/04/08 10:08:17;;;;;;;4.57;2.13;;;;;;;7.92;68.49;99754.88;5014941;28;20389;-84
2022/04/08 10:11:00;;;;;;;4.18;2.10;;;;;;;8.03;69.55;99755.47;5014851;28;20029;-84
2022/04/08 10:13:49;;;;;;;3.42;2.20;;;;;;;8.15;70.14;99767.28;5013635;28;20060;-83
2022/04/08 10:16:20;;;;;;;3.47;2.03;;;;;;;8.22;69.92;99768.84;5014714;28;20076;-84
2022/04/08 10:18:47;;;;;;;2.60;1.85;;;;;;;8.36;70.13;99771.09;5014799;28;20390;-83
2022/04/08 10:21:14;;;;;;;1.80;1.55;;;;;;;8.48;70.66;99763.09;5013989;28;20112;-84
2022/04/08 10:23:50;;;;;;;2.40;1.50;;;;;;;8.56;70.35;99757.75;5022486;28;20024;-83
2022/04/08 10:26:21;;;;;;;4.15;2.22;;;;;;;8.58;68.33;99757.69;5034655;28;20044;-83
2022/04/08 10:28:47;;;;;;;4.72;2.17;;;;;;;8.58;68.80;99760.28;5033059;28;20026;-84
2022/04/08 10:31:22;;;;;;;2.72;1.70;;;;;;;8.59;68.94;99761.97;5033978;28;20029;-84
2022/04/08 10:33:56;;;;;;;2.05;1.70;;;;;;;8.60;68.41;99759.38;5033332;28;20461;-83
2022/04/08 10:36:41;;;;;;;2.47;1.70;;;;;;;8.59;66.38;99755.09;5033472;28;20021;-84
2022/04/08 10:39:21;;;;;;;2.53;1.73;;;;;;;8.56;68.00;99756.88;5034030;28;20037;-83
2022/04/08 10:42:03;;;;;;;3.53;1.75;;;;;;;8.56;68.02;99752.56;5032949;28;20033;-83
2022/04/08 10:44:37;;;;;;;3.47;1.75;;;;;;;8.56;68.35;99742.22;5032808;28;20033;-84
2022/04/08 10:47:23;;;;;;;2.15;1.60;;;;;;;8.55;68.45;99748.28;5034436;28;20092;-84
2022/04/08 10:50:11;;;;;;;1.83;1.50;;;;;;;8.55;69.17;99752.63;5032577;28;20402;-84
2022/04/08 10:52:40;;;;;;;1.80;1.58;;;;;;;8.56;68.02;99747.41;5033531;28;20029;-84
2022/04/08 10:55:11;;;;;;;2.10;1.67;;;;;;;8.58;67.98;99750.78;5032953;28;20493;-84
2022/04/08 10:57:40;;;;;;;2.78;1.80;;;;;;;8.54;67.49;99756.09;5032420;28;20473;-84
2022/04/08 11:00:11;;;;;;;2.67;1.80;;;;;;;8.56;67.76;99747.41;5033714;28;20132;-84
2022/04/08 11:02:43;;;;;;;1.83;1.52;;;;;;;8.54;67.21;99749.16;5032599;28;20033;-84
2022/04/08 11:05:11;;;;;;;2.58;1.90;;;;;;;8.55;67.28;99755.19;5033730;28;20052;-84
2022/04/08 11:07:44;;;;;;;2.33;1.90;;;;;;;8.55;69.10;99753.44;5033423;28;20100;-84
2022/04/08 11:10:12;;;;;;;2.15;1.70;;;;;;;8.52;68.20;99745.75;5032100;28;20042;-84
2022/04/08 11:12:48;;;;;;;3.05;1.58;;;;;;;8.56;66.07;99738.75;5032624;28;20385;-85
2022/04/08 11:15:18;;;;;;;5.13;2.00;;;;;;;8.58;66.18;99730.09;5033793;28;20041;-85
2022/04/08 11:17:45;;;;;;;6.15;2.40;;;;;;;8.57;65.73;99725.81;5032634;28;20474;-82
2022/04/08 11:20:14;;;;;;;5.68;2.58;;;;;;;8.60;65.50;99732.66;5033294;28;20029;-82
2022/04/08 11:22:44;;;;;;;3.47;2.33;;;;;;;8.50;65.54;99732.88;5032921;28;20045;-83
2022/04/08 11:25:17;;;;;;;5.72;2.50;;;;;;;8.53;65.97;99736.28;5032321;28;20440;-84
2022/04/08 11:27:43;;;;;;;3.97;2.30;;;;;;;8.52;65.42;99724.22;5033351;28;20038;-84
2022/04/08 11:30:29;;;;;;;4.07;2.43;;;;;;;8.55;65.59;99719.84;5031235;28;20021;-84
2022/04/08 11:32:55;;;;;;;5.72;2.67;;;;;;;8.62;66.56;99713.59;5033180;28;20022;-81
2022/04/08 11:35:21;;;;;;;2.70;2.00;;;;;;;8.73;67.16;99713.34;5032916;28;20067;-85
2022/04/08 11:37:46;;;;;;;3.53;2.20;;;;;;;8.83;67.14;99700.16;5032052;28;20071;-84
2022/04/08 11:40:17;;;;;;;3.73;2.07;;;;;;;8.89;66.80;99692.25;5032818;28;20026;-84
2022/04/08 11:42:44;;;;;;;3.40;2.40;;;;;;;8.90;64.86;99679.25;5032923;28;20481;-86